Time;durP1;ratioP1;P1;durP2;ratioP2;P2;SDS_P1;SDS_P2;PMS_P1;PMS_P2;Temp;Humidity;BMP_temperature;BMP_pressure;BME280_temperature;BME280_humidity;BME280_pressure;Samples;Min_cycle;Max_cycle;Signal;HPM_P1;HPM_P2
2020/12/04 00:00:58;;;;;;;7.32;5.43;;;9.50;62.70;;;;;;2074886;28;20415;-72
2020/12/04 00:01:59;;;;;;;6.47;5.88;;;9.50;62.70;;;;;;2079641;28;20067;-72
2020/12/04 00:02:59;;;;;;;6.18;5.55;;;9.50;62.70;;;;;;2083399;28;20040;-71
2020/12/04 00:04:00;;;;;;;7.20;6.18;;;9.50;62.70;;;;;;2083764;28;20425;-72
2020/12/04 00:05:01;;;;;;;6.55;5.70;;;9.50;62.70;;;;;;2090542;28;20049;-72
2020/12/04 00:06:01;;;;;;;7.22;6.00;;;9.50;62.80;;;;;;2091463;28;20363;-72
2020/12/04 00:07:03;;;;;;;6.90;5.50;;;9.50;62.80;;;;;;2091454;28;20102;-72
2020/12/04 00:08:03;;;;;;;8.32;5.82;;;9.50;62.80;;;;;;2091030;28;20036;-72
2020/12/04 00:09:04;;;;;;;7.82;6.03;;;9.40;62.70;;;;;;2081867;28;20068;-72
2020/12/04 00:10:05;;;;;;;6.70;5.68;;;9.50;62.70;;;;;;2084093;28;20721;-72
2020/12/04 00:11:06;;;;;;;7.63;5.40;;;9.50;62.70;;;;;;2083500;28;20112;-71
2020/12/04 00:12:06;;;;;;;6.70;5.50;;;9.50;62.80;;;;;;2083045;28;20048;-71
2020/12/04 00:13:07;;;;;;;7.10;5.68;;;9.40;62.70;;;;;;2083352;28;20033;-72
2020/12/04 00:14:07;;;;;;;7.25;5.60;;;9.50;62.70;;;;;;2083499;28;20140;-72
2020/12/04 00:15:08;;;;;;;6.22;5.45;;;9.50;62.80;;;;;;2082667;28;20604;-72
2020/12/04 00:16:09;;;;;;;6.80;5.60;;;9.40;62.70;;;;;;2082779;28;20025;-72
2020/12/04 00:17:09;;;;;;;5.93;5.07;;;9.50;62.90;;;;;;2083667;28;20120;-71
2020/12/04 00:18:10;;;;;;;7.25;5.30;;;9.40;62.70;;;;;;2083054;28;20048;-72
2020/12/04 00:19:11;;;;;;;6.65;5.10;;;9.50;62.80;;;;;;2083044;28;20044;-72
2020/12/04 00:20:11;;;;;;;5.53;4.93;;;9.40;62.70;;;;;;2083630;28;20033;-72
2020/12/04 00:21:12;;;;;;;6.05;5.45;;;9.50;62.70;;;;;;2082852;28;20039;-72
2020/12/04 00:22:13;;;;;;;6.13;5.38;;;9.50;62.80;;;;;;2083039;28;20021;-72
2020/12/04 00:23:13;;;;;;;5.05;4.55;;;9.40;62.70;;;;;;2083251;28;20063;-72
2020/12/04 00:24:14;;;;;;;5.38;4.53;;;9.50;62.90;;;;;;2074962;28;20022;-71
2020/12/04 00:25:14;;;;;;;4.85;4.30;;;9.50;62.80;;;;;;2083183;28;20057;-72
2020/12/04 00:26:15;;;;;;;6.18;4.53;;;9.50;62.80;;;;;;2083378;28;20033;-71
2020/12/04 00:27:16;;;;;;;4.70;4.15;;;9.40;62.60;;;;;;2083557;28;20025;-72
2020/12/04 00:28:16;;;;;;;5.40;4.90;;;9.50;62.70;;;;;;2083137;28;20241;-72
2020/12/04 00:29:17;;;;;;;5.00;4.38;;;9.50;62.70;;;;;;2083254;28;20135;-72
2020/12/04 00:30:17;;;;;;;4.47;4.07;;;9.50;62.60;;;;;;2084411;28;20481;-71
2020/12/04 00:31:18;;;;;;;5.63;4.68;;;9.50;62.60;;;;;;2083013;28;20303;-72
2020/12/04 00:32:19;;;;;;;4.55;4.10;;;9.50;62.70;;;;;;2084729;28;20039;-72
2020/12/04 00:33:19;;;;;;;5.05;4.47;;;9.50;62.80;;;;;;2084594;28;20059;-72
2020/12/04 00:34:20;;;;;;;5.30;4.18;;;9.50;62.70;;;;;;2083622;28;20086;-71
2020/12/04 00:35:21;;;;;;;4.78;4.07;;;9.50;62.70;;;;;;2083728;28;20025;-71
2020/12/04 00:36:21;;;;;;;5.13;4.15;;;9.50;62.70;;;;;;2084297;28;20025;-72
2020/12/04 00:37:22;;;;;;;4.13;3.72;;;9.50;62.70;;;;;;2088106;28;20020;-71
2020/12/04 00:38:22;;;;;;;5.80;4.00;;;9.50;62.60;;;;;;2088256;28;20024;-71
2020/12/04 00:39:23;;;;;;;4.53;3.95;;;9.50;62.60;;;;;;2084300;28;20481;-72
2020/12/04 00:40:23;;;;;;;4.70;3.80;;;9.50;62.60;;;;;;2092065;28;20021;-72
2020/12/04 00:41:25;;;;;;;4.30;3.90;;;9.50;62.40;;;;;;2092702;28;20485;-72
2020/12/04 00:42:25;;;;;;;4.05;3.50;;;9.50;62.40;;;;;;2084677;28;20017;-72
2020/12/04 00:43:26;;;;;;;5.90;3.38;;;9.50;62.40;;;;;;2084279;28;20048;-72
2020/12/04 00:44:27;;;;;;;3.58;3.03;;;9.50;62.30;;;;;;2084692;28;20387;-71
2020/12/04 00:45:27;;;;;;;3.63;3.33;;;9.50;62.40;;;;;;2084773;28;20106;-71
2020/12/04 00:46:28;;;;;;;3.65;3.35;;;9.50;62.30;;;;;;2083866;28;20057;-71
2020/12/04 00:47:28;;;;;;;3.35;3.05;;;9.50;62.40;;;;;;2084899;28;20030;-72
2020/12/04 00:48:29;;;;;;;3.40;3.10;;;9.50;62.50;;;;;;2076455;28;20025;-72
2020/12/04 00:49:29;;;;;;;3.50;3.20;;;9.50;63.00;;;;;;2083649;28;20034;-74
2020/12/04 00:50:30;;;;;;;3.60;3.30;;;9.50;62.40;;;;;;2084321;28;20017;-71
2020/12/04 00:51:30;;;;;;;3.00;2.80;;;9.50;62.40;;;;;;2084360;28;20021;-72
2020/12/04 00:52:31;;;;;;;3.10;2.80;;;9.50;62.40;;;;;;2084670;28;20150;-72
2020/12/04 00:53:32;;;;;;;3.08;2.85;;;9.50;62.40;;;;;;2084565;28;20021;-72
2020/12/04 00:54:33;;;;;;;2.97;2.78;;;9.50;63.10;;;;;;2085136;28;20028;-71
2020/12/04 00:55:36;;;;;;;3.08;2.88;;;9.50;62.40;;;;;;2084667;28;20055;-71
2020/12/04 00:56:37;;;;;;;3.10;2.90;;;9.50;62.50;;;;;;2084647;28;20710;-71
2020/12/04 00:57:37;;;;;;;3.25;2.95;;;9.50;62.50;;;;;;2084693;28;20099;-72
2020/12/04 00:58:38;;;;;;;4.25;3.30;;;9.50;62.40;;;;;;2083815;28;20033;-71
2020/12/04 00:59:38;;;;;;;3.38;3.10;;;9.50;62.40;;;;;;2084405;28;20043;-71
2020/12/04 01:00:39;;;;;;;3.95;3.10;;;9.60;62.40;;;;;;2085046;28;20337;-72
2020/12/04 01:01:39;;;;;;;4.22;3.17;;;9.60;62.50;;;;;;2084208;28;20464;-71
2020/12/04 01:02:40;;;;;;;3.28;3.03;;;9.50;62.40;;;;;;2084900;28;20083;-72
2020/12/04 01:03:41;;;;;;;3.20;2.95;;;9.60;62.50;;;;;;2084538;28;20035;-71
2020/12/04 01:04:41;;;;;;;3.35;3.05;;;9.60;62.50;;;;;;2084400;28;20149;-72
2020/12/04 01:05:42;;;;;;;3.38;3.08;;;9.50;62.40;;;;;;2084676;28;20021;-72
2020/12/04 01:06:42;;;;;;;3.00;2.80;;;9.60;62.50;;;;;;2084611;28;20067;-71
2020/12/04 01:07:43;;;;;;;2.88;2.67;;;9.50;62.40;;;;;;2085462;28;20025;-72
2020/12/04 01:08:44;;;;;;;2.78;2.47;;;9.60;62.40;;;;;;2084052;28;20045;-72
2020/12/04 01:09:44;;;;;;;2.75;2.55;;;9.60;62.50;;;;;;2084476;28;20105;-72
2020/12/04 01:10:45;;;;;;;3.13;2.83;;;9.60;62.50;;;;;;2085438;28;20028;-72
2020/12/04 01:11:45;;;;;;;2.78;2.58;;;9.50;62.40;;;;;;2084635;28;20501;-72
2020/12/04 01:12:46;;;;;;;3.08;2.72;;;9.60;62.40;;;;;;2083989;28;20029;-71
2020/12/04 01:16:00;;;;;;;2.70;2.50;;;9.60;62.30;;;;;;2085367;28;20066;-72
2020/12/04 01:17:00;;;;;;;2.72;2.53;;;9.60;62.30;;;;;;2092300;28;20047;-72
2020/12/04 01:18:01;;;;;;;2.72;2.53;;;9.60;62.20;;;;;;2082716;28;20024;-72
2020/12/04 01:19:01;;;;;;;2.67;2.47;;;9.60;62.20;;;;;;2063104;28;20034;-72
2020/12/04 01:20:04;;;;;;;2.67;2.53;;;9.60;62.20;;;;;;2067889;28;20031;-72
2020/12/04 01:21:10;;;;;;;2.78;2.58;;;9.60;62.30;;;;;;2083790;28;20041;-73
2020/12/04 01:22:13;;;;;;;3.10;2.80;;;9.60;62.20;;;;;;2091849;28;20035;-72
2020/12/04 01:23:13;;;;;;;2.92;2.50;;;9.50;62.20;;;;;;2090744;28;20097;-72
2020/12/04 01:24:14;;;;;;;4.15;3.03;;;9.60;62.30;;;;;;2090904;28;20013;-73
2020/12/04 01:25:15;;;;;;;3.15;2.85;;;9.60;62.20;;;;;;2091865;28;20020;-72
2020/12/04 01:26:15;;;;;;;2.78;2.58;;;9.60;62.10;;;;;;2082696;28;20085;-72
2020/12/04 01:27:16;;;;;;;3.15;2.85;;;9.60;62.20;;;;;;2082233;28;20037;-72
2020/12/04 01:28:16;;;;;;;3.10;2.80;;;9.60;62.30;;;;;;2092059;28;20090;-73
2020/12/04 01:29:17;;;;;;;2.92;2.72;;;9.60;62.10;;;;;;2090870;28;20021;-72
2020/12/04 01:30:17;;;;;;;2.95;2.75;;;9.60;62.10;;;;;;2091600;28;20055;-72
2020/12/04 01:31:18;;;;;;;3.22;2.97;;;9.60;62.10;;;;;;2091405;28;20028;-72
2020/12/04 01:32:18;;;;;;;3.30;3.00;;;9.60;62.10;;;;;;2084123;28;20013;-72
2020/12/04 01:33:19;;;;;;;2.97;2.78;;;9.60;62.10;;;;;;2075686;28;20107;-72
2020/12/04 01:34:20;;;;;;;5.55;3.00;;;9.60;62.20;;;;;;2091156;28;20644;-72
2020/12/04 01:35:20;;;;;;;2.85;2.63;;;9.60;62.80;;;;;;2090969;28;20098;-72
2020/12/04 01:36:21;;;;;;;2.97;2.70;;;9.60;62.10;;;;;;2079320;28;20030;-72
2020/12/04 01:37:21;;;;;;;2.67;2.47;;;9.60;61.90;;;;;;2083946;28;20048;-72
2020/12/04 01:38:22;;;;;;;2.95;2.75;;;9.60;61.90;;;;;;2090733;28;20466;-72
2020/12/04 01:39:22;;;;;;;3.50;2.80;;;9.60;62.00;;;;;;2090858;28;20462;-73
2020/12/04 01:40:23;;;;;;;2.60;2.40;;;9.60;62.00;;;;;;2082518;28;20020;-72
2020/12/04 01:41:24;;;;;;;3.83;2.80;;;9.60;62.00;;;;;;2074294;28;20053;-72
2020/12/04 01:42:24;;;;;;;2.97;2.78;;;9.60;62.00;;;;;;2078609;28;20130;-73
2020/12/04 01:43:25;;;;;;;2.72;2.53;;;9.60;61.90;;;;;;2079201;28;20293;-73
2020/12/04 01:44:26;;;;;;;3.28;2.97;;;9.50;61.90;;;;;;2083885;28;20422;-73
2020/12/04 01:45:27;;;;;;;2.78;2.50;;;9.60;61.90;;;;;;2075756;28;20514;-72
2020/12/04 01:46:27;;;;;;;3.20;2.60;;;9.50;61.80;;;;;;2073897;28;20475;-72
2020/12/04 01:47:28;;;;;;;2.78;2.50;;;9.60;61.90;;;;;;2091941;28;20055;-72
2020/12/04 01:48:28;;;;;;;3.35;2.97;;;9.50;61.80;;;;;;2090528;28;20032;-72
2020/12/04 01:49:29;;;;;;;2.97;2.78;;;9.50;61.90;;;;;;2091557;28;20083;-72
2020/12/04 01:50:30;;;;;;;2.55;2.35;;;9.60;61.90;;;;;;2091355;28;20029;-72
2020/12/04 01:51:32;;;;;;;2.92;2.63;;;9.50;61.80;;;;;;2083684;28;20107;-73
2020/12/04 01:52:33;;;;;;;2.97;2.67;;;9.50;61.70;;;;;;2091781;28;20043;-73
2020/12/04 01:53:34;;;;;;;2.60;2.40;;;9.50;61.70;;;;;;2091699;28;20029;-73
2020/12/04 01:54:34;;;;;;;2.53;2.33;;;9.50;61.70;;;;;;2091166;28;20024;-72
2020/12/04 01:55:35;;;;;;;2.53;2.33;;;9.50;61.80;;;;;;2100168;28;20048;-72
2020/12/04 01:56:38;;;;;;;2.70;2.50;;;9.50;61.80;;;;;;2083110;28;20431;-72
2020/12/04 01:57:42;;;;;;;2.70;2.50;;;9.50;61.70;;;;;;2066228;28;20424;-72
2020/12/04 01:58:42;;;;;;;2.75;2.55;;;9.50;61.70;;;;;;2074752;28;20395;-73
2020/12/04 01:59:43;;;;;;;2.65;2.45;;;9.50;61.80;;;;;;2090941;28;20052;-72
2020/12/04 02:00:45;;;;;;;2.60;2.40;;;9.50;61.70;;;;;;2081810;28;20446;-72
2020/12/04 02:01:48;;;;;;;2.33;2.17;;;9.50;61.70;;;;;;2090470;28;20025;-72
2020/12/04 02:02:49;;;;;;;2.53;2.33;;;9.50;61.70;;;;;;2090966;28;20462;-71
2020/12/04 02:03:49;;;;;;;2.65;2.45;;;9.50;61.70;;;;;;2083353;28;20389;-72
2020/12/04 02:04:51;;;;;;;2.80;2.60;;;9.50;61.70;;;;;;2081984;28;20044;-72
2020/12/04 02:05:58;;;;;;;2.90;2.70;;;9.50;61.60;;;;;;2075577;28;20034;-72
2020/12/04 02:07:05;;;;;;;2.80;2.60;;;9.50;61.60;;;;;;2084542;28;20402;-72
2020/12/04 02:08:26;;;;;;;2.50;2.38;;;9.50;61.50;;;;;;2092106;28;20029;-72
2020/12/04 02:09:32;;;;;;;2.50;2.30;;;9.50;61.50;;;;;;2098752;28;20028;-72
2020/12/04 02:10:47;;;;;;;2.40;2.28;;;9.50;61.50;;;;;;2099122;28;20028;-72
2020/12/04 02:11:50;;;;;;;2.70;2.50;;;9.50;61.50;;;;;;2090743;28;20036;-72
2020/12/04 02:12:52;;;;;;;2.60;2.40;;;9.50;62.40;;;;;;2098848;28;20032;-72
2020/12/04 02:13:55;;;;;;;2.60;2.42;;;9.50;61.70;;;;;;2099041;28;20074;-72
2020/12/04 02:14:56;;;;;;;2.60;2.40;;;9.40;61.50;;;;;;2082644;28;20044;-72
2020/12/04 02:15:56;;;;;;;2.88;2.67;;;9.50;61.70;;;;;;2082464;28;20063;-73
2020/12/04 02:17:04;;;;;;;2.55;2.35;;;9.50;61.70;;;;;;2082714;28;20088;-72
2020/12/04 02:18:05;;;;;;;2.65;2.45;;;9.50;61.60;;;;;;2080047;28;20071;-72
2020/12/04 02:19:06;;;;;;;3.10;2.88;;;9.40;61.50;;;;;;2089101;28;20029;-72
2020/12/04 02:20:09;;;;;;;2.67;2.40;;;9.40;61.50;;;;;;2090975;28;20279;-72
2020/12/04 02:21:11;;;;;;;2.85;2.65;;;9.40;61.50;;;;;;2072955;28;20026;-72
2020/12/04 02:22:13;;;;;;;3.13;2.83;;;9.40;61.50;;;;;;2079278;28;20104;-71
2020/12/04 02:23:13;;;;;;;3.13;2.92;;;9.50;61.50;;;;;;2087024;28;20337;-73
2020/12/04 02:24:14;;;;;;;2.90;2.65;;;9.40;61.50;;;;;;2082580;28;20116;-72
2020/12/04 02:25:15;;;;;;;3.13;2.85;;;9.40;61.50;;;;;;2083429;28;20447;-72
2020/12/04 02:26:18;;;;;;;2.97;2.78;;;9.40;61.50;;;;;;2081513;28;20540;-72
2020/12/04 02:27:19;;;;;;;2.85;2.63;;;9.40;61.50;;;;;;2090668;28;20107;-72
2020/12/04 02:28:39;;;;;;;3.28;2.97;;;9.40;62.20;;;;;;2089796;28;20303;-73
2020/12/04 02:29:40;;;;;;;2.95;2.70;;;9.40;61.40;;;;;;2089254;28;20048;-72
2020/12/04 02:30:40;;;;;;;2.90;2.70;;;9.40;61.50;;;;;;2078681;28;20033;-72
2020/12/04 02:31:41;;;;;;;3.20;2.95;;;9.40;61.50;;;;;;2082162;28;20052;-72
2020/12/04 02:32:42;;;;;;;3.17;2.88;;;9.40;61.50;;;;;;2090926;28;20139;-73
2020/12/04 02:33:44;;;;;;;3.33;3.03;;;9.40;61.50;;;;;;2091314;28;20032;-72
2020/12/04 02:34:44;;;;;;;3.40;3.10;;;9.40;61.50;;;;;;2074986;28;20132;-72
2020/12/04 02:35:45;;;;;;;3.45;3.15;;;9.40;61.40;;;;;;2067791;28;20329;-72
2020/12/04 02:36:46;;;;;;;3.45;3.15;;;9.40;61.30;;;;;;2091636;28;20433;-75
2020/12/04 02:37:47;;;;;;;3.08;2.88;;;9.40;61.30;;;;;;2080324;28;20028;-74
2020/12/04 02:38:47;;;;;;;3.03;2.83;;;9.40;61.40;;;;;;2082366;28;20481;-74
2020/12/04 02:39:48;;;;;;;3.28;3.00;;;9.40;61.30;;;;;;2090685;28;20021;-72
2020/12/04 02:40:49;;;;;;;3.38;3.10;;;9.40;61.30;;;;;;2091092;28;20028;-73
2020/12/04 02:41:49;;;;;;;3.67;3.30;;;9.40;61.30;;;;;;2090102;28;20048;-73
2020/12/04 02:42:50;;;;;;;3.55;3.25;;;9.40;61.40;;;;;;2090696;28;20029;-73
2020/12/04 02:43:50;;;;;;;4.20;3.28;;;9.40;61.30;;;;;;2083800;28;20410;-73
2020/12/04 02:44:51;;;;;;;3.50;3.20;;;9.40;61.30;;;;;;2075103;28;20021;-73
2020/12/04 02:45:51;;;;;;;3.55;3.25;;;9.30;61.30;;;;;;2075199;28;20061;-73
2020/12/04 02:46:53;;;;;;;3.67;3.38;;;9.30;61.30;;;;;;2075280;28;20038;-74
2020/12/04 02:47:54;;;;;;;3.08;2.88;;;9.40;61.50;;;;;;2076064;28;20032;-73
2020/12/04 02:48:54;;;;;;;3.47;3.17;;;9.40;61.50;;;;;;2083137;28;20098;-73
2020/12/04 02:49:55;;;;;;;3.22;2.92;;;9.30;61.50;;;;;;2090741;28;20025;-73
2020/12/04 02:50:55;;;;;;;3.45;3.15;;;9.40;61.50;;;;;;2083838;28;20013;-73
2020/12/04 02:51:57;;;;;;;3.53;3.22;;;9.40;61.40;;;;;;2070178;28;20025;-73
2020/12/04 02:52:58;;;;;;;4.05;3.65;;;9.30;61.40;;;;;;2082091;28;20029;-73
2020/12/04 02:53:58;;;;;;;3.65;3.35;;;9.40;61.50;;;;;;2091004;28;20096;-73
2020/12/04 02:54:59;;;;;;;4.43;3.42;;;9.40;61.60;;;;;;2083168;28;20022;-72
2020/12/04 02:56:00;;;;;;;3.60;3.30;;;9.30;61.50;;;;;;2067865;28;20042;-73
2020/12/04 02:57:00;;;;;;;3.65;3.35;;;9.30;61.40;;;;;;2070026;28;20018;-73
2020/12/04 02:58:01;;;;;;;3.83;3.53;;;9.30;61.50;;;;;;2082493;28;20102;-73
2020/12/04 02:59:02;;;;;;;3.78;3.40;;;9.30;61.40;;;;;;2078275;28;20033;-73
2020/12/04 03:00:04;;;;;;;3.58;3.28;;;9.30;61.50;;;;;;2067525;28;20451;-73
2020/12/04 03:01:05;;;;;;;3.65;3.33;;;9.30;62.10;;;;;;2089574;28;20105;-73
2020/12/04 03:02:05;;;;;;;3.88;3.47;;;9.30;61.40;;;;;;2091419;28;20617;-73
2020/12/04 03:03:06;;;;;;;3.00;2.80;;;9.30;61.40;;;;;;2090623;28;20038;-72
2020/12/04 03:04:06;;;;;;;3.50;3.20;;;9.30;61.40;;;;;;2090802;28;20447;-73
2020/12/04 03:05:07;;;;;;;3.83;3.05;;;9.30;61.50;;;;;;2081689;28;20329;-73
2020/12/04 03:06:07;;;;;;;4.00;3.45;;;9.30;61.50;;;;;;2083764;28;20021;-73
2020/12/04 03:07:08;;;;;;;3.50;3.20;;;9.30;61.50;;;;;;2091683;28;20049;-73
2020/12/04 03:08:08;;;;;;;4.20;3.53;;;9.30;61.50;;;;;;2092459;28;20024;-72
2020/12/04 03:09:09;;;;;;;4.25;3.13;;;9.30;61.50;;;;;;2089669;28;20492;-72
2020/12/04 03:10:09;;;;;;;3.28;2.97;;;9.30;61.50;;;;;;2089602;28;20036;-73
2020/12/04 03:11:10;;;;;;;3.40;3.10;;;9.20;61.60;;;;;;2082272;28;20455;-73
2020/12/04 03:12:11;;;;;;;3.25;2.95;;;9.20;61.60;;;;;;2067625;28;20423;-73
2020/12/04 03:13:11;;;;;;;3.30;3.00;;;9.20;61.50;;;;;;2083163;28;20111;-73
2020/12/04 03:14:12;;;;;;;3.72;3.35;;;9.20;61.60;;;;;;2090960;28;20059;-73
2020/12/04 03:15:12;;;;;;;3.33;3.03;;;9.20;61.50;;;;;;2091224;28;20028;-73
2020/12/04 03:16:14;;;;;;;3.30;3.00;;;9.20;61.50;;;;;;2081798;28;20350;-72
2020/12/04 03:17:14;;;;;;;3.55;3.25;;;9.20;61.50;;;;;;2074961;28;20065;-73
2020/12/04 03:18:15;;;;;;;5.18;3.88;;;9.20;61.50;;;;;;2074227;28;20061;-73
2020/12/04 03:19:15;;;;;;;4.00;3.40;;;9.20;61.60;;;;;;2073914;28;20030;-73
2020/12/04 03:20:16;;;;;;;3.53;3.22;;;9.20;61.70;;;;;;2090326;28;20496;-73
2020/12/04 03:21:16;;;;;;;3.33;3.03;;;9.20;61.70;;;;;;2091722;28;20029;-73
2020/12/04 03:22:17;;;;;;;4.03;3.13;;;9.20;61.80;;;;;;2092089;28;20031;-73
2020/12/04 03:23:17;;;;;;;3.28;2.97;;;9.20;61.70;;;;;;2089382;28;20017;-73
2020/12/04 03:24:18;;;;;;;3.38;3.08;;;9.20;61.70;;;;;;2075312;28;20358;-73
2020/12/04 03:25:19;;;;;;;3.13;2.83;;;9.20;61.70;;;;;;2083864;28;20029;-71
2020/12/04 03:26:19;;;;;;;3.28;2.97;;;9.20;61.70;;;;;;2090485;28;20029;-73
2020/12/04 03:27:20;;;;;;;4.40;3.10;;;9.20;61.70;;;;;;2089362;28;20414;-73
2020/12/04 03:28:20;;;;;;;3.28;2.97;;;9.20;61.70;;;;;;2090880;28;20509;-73
2020/12/04 03:29:21;;;;;;;3.20;2.88;;;9.20;61.80;;;;;;2090389;28;20108;-73
2020/12/04 03:30:21;;;;;;;3.08;2.88;;;9.30;61.90;;;;;;2083181;28;20052;-73
2020/12/04 03:31:22;;;;;;;3.15;2.53;;;9.20;61.70;;;;;;2074907;28;20113;-73
2020/12/04 03:32:23;;;;;;;3.40;3.10;;;9.20;61.70;;;;;;2090811;28;20021;-73
2020/12/04 03:33:23;;;;;;;3.28;2.97;;;9.20;61.70;;;;;;2090526;28;20505;-73
2020/12/04 03:34:24;;;;;;;2.92;2.72;;;9.20;61.70;;;;;;2077887;28;20029;-73
2020/12/04 03:35:24;;;;;;;3.00;2.80;;;9.30;61.80;;;;;;2083698;28;20124;-73
2020/12/04 03:36:25;;;;;;;2.95;2.75;;;9.30;61.80;;;;;;2091254;28;20016;-72
2020/12/04 03:37:27;;;;;;;3.17;2.92;;;9.30;61.80;;;;;;2091367;28;20027;-73
2020/12/04 03:38:27;;;;;;;2.78;2.55;;;9.30;61.80;;;;;;2090737;28;20028;-73
2020/12/04 03:39:28;;;;;;;3.33;3.03;;;9.30;61.80;;;;;;2091398;28;20090;-72
2020/12/04 03:40:28;;;;;;;3.65;2.90;;;9.30;61.70;;;;;;2090881;28;20028;-74
2020/12/04 03:41:29;;;;;;;2.97;2.72;;;9.30;61.60;;;;;;2091977;28;20059;-72
2020/12/04 03:42:29;;;;;;;2.88;2.67;;;9.30;61.60;;;;;;2074066;28;20037;-73
2020/12/04 03:43:30;;;;;;;3.20;2.90;;;9.30;61.60;;;;;;2066097;28;20371;-73
2020/12/04 03:44:31;;;;;;;2.75;2.55;;;9.30;61.60;;;;;;2089213;28;20446;-73
2020/12/04 03:45:31;;;;;;;3.00;2.70;;;9.30;61.60;;;;;;2090987;28;20424;-73
2020/12/04 03:46:32;;;;;;;2.90;2.70;;;9.30;61.60;;;;;;2090708;28;20502;-73
2020/12/04 03:47:36;;;;;;;2.55;2.35;;;9.30;61.60;;;;;;2090574;28;20025;-73
2020/12/04 03:48:38;;;;;;;2.78;2.58;;;9.30;61.50;;;;;;2081125;28;20118;-72
2020/12/04 03:49:39;;;;;;;3.10;2.65;;;9.30;61.60;;;;;;2082646;28;20032;-74
2020/12/04 03:50:39;;;;;;;3.55;2.83;;;9.30;61.60;;;;;;2082022;28;20100;-73
2020/12/04 03:51:41;;;;;;;2.95;2.50;;;9.30;61.60;;;;;;2075029;28;20026;-74
2020/12/04 03:52:41;;;;;;;3.00;2.80;;;9.30;61.70;;;;;;2081864;28;20033;-73
2020/12/04 03:53:42;;;;;;;2.92;2.72;;;9.30;61.70;;;;;;2082402;28;20109;-74
2020/12/04 03:54:42;;;;;;;2.60;2.40;;;9.30;61.70;;;;;;2075175;28;20406;-73
2020/12/04 03:55:43;;;;;;;3.03;2.58;;;9.30;61.70;;;;;;2082317;28;20029;-74
2020/12/04 03:56:43;;;;;;;2.80;2.60;;;9.30;61.80;;;;;;2091020;28;20032;-75
2020/12/04 03:57:44;;;;;;;3.88;2.70;;;9.30;61.70;;;;;;2091098;28;20100;-74
2020/12/04 03:58:44;;;;;;;2.75;2.55;;;9.30;61.70;;;;;;2089341;28;20021;-74
2020/12/04 03:59:45;;;;;;;2.75;2.55;;;9.30;61.60;;;;;;2091067;28;20414;-73
2020/12/04 04:00:46;;;;;;;2.55;2.35;;;9.30;61.70;;;;;;2089397;28;20024;-74
2020/12/04 04:01:47;;;;;;;3.67;2.65;;;9.30;61.70;;;;;;2090096;28;20017;-74
2020/12/04 04:02:48;;;;;;;2.72;2.53;;;9.30;61.70;;;;;;2090207;28;20955;-75
2020/12/04 04:03:49;;;;;;;2.88;2.67;;;9.30;61.70;;;;;;2091680;28;20028;-74
2020/12/04 04:04:49;;;;;;;2.80;2.60;;;9.30;61.70;;;;;;2082320;28;20462;-74
2020/12/04 04:05:50;;;;;;;2.97;2.70;;;9.30;61.70;;;;;;2083842;28;20404;-73
2020/12/04 04:06:50;;;;;;;3.22;2.70;;;9.30;61.70;;;;;;2092457;28;20028;-73
2020/12/04 04:07:51;;;;;;;2.88;2.67;;;9.30;61.70;;;;;;2084041;28;20056;-73
2020/12/04 04:08:52;;;;;;;2.55;2.35;;;9.30;61.70;;;;;;2084517;28;20052;-73
2020/12/04 04:09:52;;;;;;;2.88;2.67;;;9.30;61.70;;;;;;2092182;28;20119;-73
2020/12/04 04:10:53;;;;;;;2.72;2.53;;;9.30;61.80;;;;;;2092138;28;21335;-73
2020/12/04 04:11:54;;;;;;;2.70;2.50;;;9.30;61.70;;;;;;2084813;28;20032;-73
2020/12/04 04:12:54;;;;;;;2.30;2.20;;;9.30;61.70;;;;;;2085055;28;20059;-73
2020/12/04 04:13:55;;;;;;;2.75;2.55;;;9.30;61.70;;;;;;2092840;28;20028;-74
2020/12/04 04:14:55;;;;;;;2.35;2.17;;;9.30;61.80;;;;;;2091427;28;20028;-74
2020/12/04 04:15:56;;;;;;;2.67;2.47;;;9.30;61.80;;;;;;2082036;28;20033;-73
2020/12/04 04:16:56;;;;;;;2.22;2.13;;;9.30;61.80;;;;;;2091551;28;20243;-73
2020/12/04 04:17:59;;;;;;;2.65;2.45;;;9.30;61.80;;;;;;2091922;28;20020;-73
2020/12/04 04:18:59;;;;;;;2.67;2.47;;;9.30;61.70;;;;;;2091327;28;20090;-73
2020/12/04 04:20:00;;;;;;;2.67;2.47;;;9.30;61.80;;;;;;2091982;28;20482;-73
2020/12/04 04:21:01;;;;;;;2.50;2.30;;;9.30;61.80;;;;;;2091522;28;20458;-73
2020/12/04 04:22:02;;;;;;;2.70;2.50;;;9.30;61.80;;;;;;2083524;28;20028;-73
2020/12/04 04:23:02;;;;;;;2.83;2.40;;;9.30;61.80;;;;;;2091327;28;20297;-73
2020/12/04 04:24:03;;;;;;;2.78;2.33;;;9.30;61.80;;;;;;2092530;28;20031;-73
2020/12/04 04:25:03;;;;;;;2.67;2.47;;;9.30;61.80;;;;;;2092349;28;20036;-73
2020/12/04 04:26:04;;;;;;;2.63;2.42;;;9.30;61.80;;;;;;2092641;28;20033;-73
2020/12/04 04:27:05;;;;;;;3.05;2.70;;;9.30;61.80;;;;;;2092979;28;20328;-73
2020/12/04 04:28:11;;;;;;;2.42;2.28;;;9.30;61.80;;;;;;2090893;28;20081;-73
2020/12/04 04:29:11;;;;;;;2.50;2.10;;;9.30;61.70;;;;;;2077005;28;20618;-73
2020/12/04 04:30:13;;;;;;;2.30;2.20;;;9.30;61.70;;;;;;2076438;28;20152;-73
2020/12/04 04:31:13;;;;;;;2.40;2.20;;;9.30;61.60;;;;;;2090746;28;20049;-73
2020/12/04 04:32:14;;;;;;;2.50;2.30;;;9.30;61.60;;;;;;2092595;28;20061;-73
2020/12/04 04:33:14;;;;;;;2.30;2.20;;;9.30;61.80;;;;;;2091885;28;20051;-73
2020/12/04 04:34:15;;;;;;;2.28;2.17;;;9.30;61.70;;;;;;2091139;28;20036;-73
2020/12/04 04:35:15;;;;;;;2.45;2.25;;;9.30;61.70;;;;;;2091730;28;20039;-73
2020/12/04 04:36:16;;;;;;;2.60;2.42;;;9.30;61.70;;;;;;2091496;28;20036;-73
2020/12/04 04:37:17;;;;;;;2.25;2.15;;;9.30;61.80;;;;;;2082663;28;20048;-73
2020/12/04 04:38:17;;;;;;;2.50;2.30;;;9.30;61.80;;;;;;2083269;28;20030;-73
2020/12/04 04:39:18;;;;;;;2.47;2.28;;;9.30;61.90;;;;;;2082103;28;20348;-73
2020/12/04 04:40:18;;;;;;;2.13;2.00;;;9.30;61.90;;;;;;2083949;28;20021;-73
2020/12/04 04:41:19;;;;;;;2.30;2.20;;;9.30;62.00;;;;;;2091157;28;20117;-73
2020/12/04 04:42:19;;;;;;;2.58;2.38;;;9.30;61.90;;;;;;2091514;28;20044;-73
2020/12/04 04:43:20;;;;;;;2.15;1.95;;;9.30;61.90;;;;;;2092406;28;20383;-73
2020/12/04 04:44:21;;;;;;;2.00;1.90;;;9.30;61.90;;;;;;2091986;28;20048;-73
2020/12/04 04:45:22;;;;;;;2.58;2.38;;;9.40;62.00;;;;;;2091858;28;20370;-73
2020/12/04 04:46:49;;;;;;;2.30;2.20;;;9.30;61.90;;;;;;2092025;28;20024;-73
2020/12/04 04:47:50;;;;;;;2.38;2.28;;;9.40;62.00;;;;;;2086740;28;20347;-73
2020/12/04 04:48:56;;;;;;;2.30;2.10;;;9.40;62.10;;;;;;2090471;28;20041;-73
2020/12/04 04:49:57;;;;;;;2.20;2.10;;;9.40;62.10;;;;;;2092411;28;20028;-73
2020/12/04 04:50:59;;;;;;;2.55;2.20;;;9.40;62.20;;;;;;2093038;28;20028;-74
2020/12/04 04:52:00;;;;;;;1.95;1.85;;;9.40;62.20;;;;;;2092569;28;20027;-73
2020/12/04 04:53:02;;;;;;;2.40;2.20;;;9.40;62.10;;;;;;2092586;28;20025;-73
2020/12/04 04:54:03;;;;;;;2.22;2.13;;;9.40;62.20;;;;;;2092107;28;20625;-73
2020/12/04 04:55:04;;;;;;;2.95;2.25;;;9.40;62.10;;;;;;2093311;28;20034;-73
2020/12/04 04:56:05;;;;;;;2.95;2.20;;;9.40;62.20;;;;;;2076110;28;20457;-73
2020/12/04 04:57:05;;;;;;;1.92;1.83;;;9.40;62.20;;;;;;2083192;28;20114;-73
2020/12/04 04:58:06;;;;;;;2.50;2.30;;;9.40;62.20;;;;;;2091790;28;20037;-72
2020/12/04 04:59:07;;;;;;;2.67;2.13;;;9.40;62.20;;;;;;2081161;28;20056;-73
2020/12/04 05:00:07;;;;;;;2.20;2.00;;;9.50;62.30;;;;;;2084214;28;20017;-73
2020/12/04 05:01:08;;;;;;;2.22;2.13;;;9.40;62.20;;;;;;2091485;28;20458;-73
2020/12/04 05:02:13;;;;;;;1.90;1.80;;;9.50;62.20;;;;;;2091601;28;20017;-73
2020/12/04 05:03:13;;;;;;;2.00;1.90;;;9.50;62.20;;;;;;2092744;28;20033;-73
2020/12/04 05:04:15;;;;;;;2.40;2.20;;;9.40;62.10;;;;;;2091954;28;20413;-73
2020/12/04 05:05:16;;;;;;;1.98;1.88;;;9.40;62.10;;;;;;2092707;28;20025;-73
2020/12/04 05:06:32;;;;;;;2.45;2.25;;;9.50;62.20;;;;;;2085048;28;20034;-73
2020/12/04 05:07:34;;;;;;;2.72;2.00;;;9.40;62.00;;;;;;2091572;28;20079;-73
2020/12/04 05:08:34;;;;;;;2.17;2.08;;;9.50;62.20;;;;;;2080762;28;20032;-73
2020/12/04 05:09:35;;;;;;;2.17;2.08;;;9.50;62.20;;;;;;2091266;28;20439;-73
2020/12/04 05:10:35;;;;;;;2.58;2.28;;;9.50;62.20;;;;;;2090556;28;20460;-73
2020/12/04 05:11:36;;;;;;;3.45;1.98;;;9.50;62.20;;;;;;2091620;28;20021;-73
2020/12/04 05:12:39;;;;;;;2.13;2.00;;;9.50;62.20;;;;;;2091370;28;20060;-73
2020/12/04 05:13:40;;;;;;;2.00;1.90;;;9.50;62.20;;;;;;2092293;28;20362;-73
2020/12/04 05:14:40;;;;;;;2.00;1.90;;;9.50;62.20;;;;;;2091859;28;20037;-73
2020/12/04 05:15:41;;;;;;;1.88;1.77;;;9.50;62.20;;;;;;2091361;28;20051;-73
2020/12/04 05:16:43;;;;;;;1.80;1.70;;;9.50;62.30;;;;;;2091148;28;20059;-73
2020/12/04 05:18:06;;;;;;;2.05;1.95;;;9.50;62.30;;;;;;2091949;28;20035;-73
2020/12/04 05:19:07;;;;;;;2.00;1.90;;;9.50;62.30;;;;;;2090732;28;20449;-73
2020/12/04 05:20:14;;;;;;;2.03;1.92;;;9.50;62.40;;;;;;2083444;28;20054;-73
2020/12/04 05:21:15;;;;;;;2.00;1.80;;;9.50;62.30;;;;;;2091107;28;20142;-73
2020/12/04 05:22:17;;;;;;;1.85;1.75;;;9.50;62.40;;;;;;2090709;28;20033;-73
2020/12/04 05:23:18;;;;;;;2.38;1.70;;;9.50;62.40;;;;;;2091708;28;20017;-73
2020/12/04 05:24:26;;;;;;;1.75;1.65;;;9.50;62.50;;;;;;2098960;28;20027;-73
2020/12/04 05:25:33;;;;;;;1.65;1.55;;;9.50;62.40;;;;;;2099281;28;20012;-73
2020/12/04 05:26:35;;;;;;;1.58;1.48;;;9.50;62.40;;;;;;2090253;28;20131;-73